sensor_id;sensor_type;location;lat;lon;timestamp;pressure;altitude;pressure_sealevel;temperature;humidity
74429;BME280;62860;52.134;23.714;2022-11-20T00:04:24;1026.9;;;-7.3;73.4
74429;BME280;62860;52.134;23.714;2022-11-20T00:09:22;1026.8;;;-7.3;73.5
74429;BME280;62860;52.134;23.714;2022-11-20T00:14:36;1026.8;;;-7.3;73.4
74429;BME280;62860;52.134;23.714;2022-11-20T00:19:04;1026.7;;;-7.3;73.2
74429;BME280;62860;52.134;23.714;2022-11-20T00:24:46;1026.6;;;-7.3;73.2
74429;BME280;62860;52.134;23.714;2022-11-20T00:29:24;1026.6;;;-7.3;73
74429;BME280;62860;52.134;23.714;2022-11-20T00:34:24;1026.6;;;-7.2;72.9
74429;BME280;62860;52.134;23.714;2022-11-20T00:39:36;1026.6;;;-7.2;73
74429;BME280;62860;52.134;23.714;2022-11-20T00:44:26;1026.6;;;-7.2;72.8
74429;BME280;62860;52.134;23.714;2022-11-20T00:49:50;1026.6;;;-7.2;72.6
74429;BME280;62860;52.134;23.714;2022-11-20T00:54:12;1026.6;;;-7.2;72.7
74429;BME280;62860;52.134;23.714;2022-11-20T00:59:48;1026.5;;;-7.2;72.6
74429;BME280;62860;52.134;23.714;2022-11-20T01:04:48;1026.5;;;-7.2;72.7
74429;BME280;62860;52.134;23.714;2022-11-20T01:09:46;1026.5;;;-7.2;72.9
74429;BME280;62860;52.134;23.714;2022-11-20T01:14:22;1026.5;;;-7.1;72.8
74429;BME280;62860;52.134;23.714;2022-11-20T01:19:05;1026.4;;;-7.1;72.7
74429;BME280;62860;52.134;23.714;2022-11-20T01:24:22;1026.4;;;-7.1;72.7
74429;BME280;62860;52.134;23.714;2022-11-20T01:29:54;1026.4;;;-7.1;72.4
74429;BME280;62860;52.134;23.714;2022-11-20T01:34:28;1026.3;;;-7.2;72.5
74429;BME280;62860;52.134;23.714;2022-11-20T01:39:42;1026.3;;;-7.3;72.8
74429;BME280;62860;52.134;23.714;2022-11-20T01:44:17;1026.2;;;-7.4;73
74429;BME280;62860;52.134;23.714;2022-11-20T01:49:55;1026.2;;;-7.5;73
74429;BME280;62860;52.134;23.714;2022-11-20T01:54:15;1026.2;;;-7.6;73.1
74429;BME280;62860;52.134;23.714;2022-11-20T01:59:30;1026.2;;;-7.6;72.8
74429;BME280;62860;52.134;23.714;2022-11-20T02:04:40;1026.2;;;-7.7;72.9
74429;BME280;62860;52.134;23.714;2022-11-20T02:09:16;1026.3;;;-7.7;73
74429;BME280;62860;52.134;23.714;2022-11-20T02:14:40;1026.3;;;-7.8;73
74429;BME280;62860;52.134;23.714;2022-11-20T02:19:52;1026.3;;;-7.8;73.1
74429;BME280;62860;52.134;23.714;2022-11-20T02:24:50;1026.3;;;-7.9;73.1
74429;BME280;62860;52.134;23.714;2022-11-20T02:29:25;1026.4;;;-8;73.2
74429;BME280;62860;52.134;23.714;2022-11-20T02:34:04;1026.4;;;-8;73.3
74429;BME280;62860;52.134;23.714;2022-11-20T02:39:25;1026.4;;;-8;73.4
74429;BME280;62860;52.134;23.714;2022-11-20T02:44:52;1026.4;;;-8;73.3
74429;BME280;62860;52.134;23.714;2022-11-20T02:49:28;1026.4;;;-8;73.3
74429;BME280;62860;52.134;23.714;2022-11-20T02:54:42;1026.4;;;-8;73.5
74429;BME280;62860;52.134;23.714;2022-11-20T02:59:04;1026.5;;;-8;73.6
74429;BME280;62860;52.134;23.714;2022-11-20T03:04:52;1026.6;;;-7.9;73.3
74429;BME280;62860;52.134;23.714;2022-11-20T03:09:24;1026.5;;;-7.9;73.1
74429;BME280;62860;52.134;23.714;2022-11-20T03:14:42;1026.5;;;-7.9;73.3
74429;BME280;62860;52.134;23.714;2022-11-20T03:19:38;1026.4;;;-7.9;73.4
74429;BME280;62860;52.134;23.714;2022-11-20T03:24:04;1026.3;;;-7.9;73.3
74429;BME280;62860;52.134;23.714;2022-11-20T03:29:40;1026.3;;;-7.8;73.2
74429;BME280;62860;52.134;23.714;2022-11-20T03:34:50;1026.3;;;-7.9;73
74429;BME280;62860;52.134;23.714;2022-11-20T03:39:50;1026.4;;;-7.9;72.9
74429;BME280;62860;52.134;23.714;2022-11-20T03:44:26;1026.4;;;-7.9;73
74429;BME280;62860;52.134;23.714;2022-11-20T03:49:16;1026.3;;;-8;73
74429;BME280;62860;52.134;23.714;2022-11-20T03:54:16;1026.3;;;-8;73.1
74429;BME280;62860;52.134;23.714;2022-11-20T03:59:52;1026.3;;;-8;73.3
74429;BME280;62860;52.134;23.714;2022-11-20T04:04:28;1026.4;;;-8;73.2
74429;BME280;62860;52.134;23.714;2022-11-20T04:09:40;1026.3;;;-8.1;73.3
74429;BME280;62860;52.134;23.714;2022-11-20T04:14:05;1026.4;;;-8;73.2
74429;BME280;62860;52.134;23.714;2022-11-20T04:19:52;1026.3;;;-8.1;73
74429;BME280;62860;52.134;23.714;2022-11-20T04:24:22;1026.2;;;-8.1;73.3
74429;BME280;62860;52.134;23.714;2022-11-20T04:29:40;1026.2;;;-8.1;73.2
74429;BME280;62860;52.134;23.714;2022-11-20T04:34:26;1026;;;-8;73.4
74429;BME280;62860;52.134;23.714;2022-11-20T04:39:14;1025.9;;;-8;73.2
74429;BME280;62860;52.134;23.714;2022-11-20T04:44:52;1025.9;;;-8;73.1
74429;BME280;62860;52.134;23.714;2022-11-20T04:49:38;1025.9;;;-7.8;73.3
74429;BME280;62860;52.134;23.714;2022-11-20T04:54:50;1025.8;;;-7.7;73.3
74429;BME280;62860;52.134;23.714;2022-11-20T04:59:04;1025.7;;;-7.6;73.4
74429;BME280;62860;52.134;23.714;2022-11-20T05:04:16;1025.7;;;-7.4;73.4
74429;BME280;62860;52.134;23.714;2022-11-20T05:09:16;1025.6;;;-7.4;73.4
74429;BME280;62860;52.134;23.714;2022-11-20T05:14:52;1025.5;;;-7.3;73.5
74429;BME280;62860;52.134;23.714;2022-11-20T05:19:04;1025.4;;;-7.4;73.5
74429;BME280;62860;52.134;23.714;2022-11-20T05:24:40;1025.4;;;-7.3;73.5
74429;BME280;62860;52.134;23.714;2022-11-20T05:29:04;1025.3;;;-7.2;73.5
74429;BME280;62860;52.134;23.714;2022-11-20T05:34:50;1025.4;;;-7.1;73.5
74429;BME280;62860;52.134;23.714;2022-11-20T05:39:24;1025.4;;;-7;73.4
74429;BME280;62860;52.134;23.714;2022-11-20T05:44:42;1025.4;;;-6.8;73.3
74429;BME280;62860;52.134;23.714;2022-11-20T05:49:28;1025.4;;;-6.8;73.3
74429;BME280;62860;52.134;23.714;2022-11-20T05:54:04;1025.4;;;-6.7;73.4
74429;BME280;62860;52.134;23.714;2022-11-20T05:59:52;1025.3;;;-6.7;73.4
74429;BME280;62860;52.134;23.714;2022-11-20T06:04:52;1025.4;;;-6.6;73.4
74429;BME280;62860;52.134;23.714;2022-11-20T06:09:44;1025.4;;;-6.5;73.5
74429;BME280;62860;52.134;23.714;2022-11-20T06:14:28;1025.3;;;-6.4;73.5
74429;BME280;62860;52.134;23.714;2022-11-20T06:19:04;1025.3;;;-6.2;73.6
74429;BME280;62860;52.134;23.714;2022-11-20T06:24:16;1025.2;;;-6.1;73.2
74429;BME280;62860;52.134;23.714;2022-11-20T06:29:52;1025.1;;;-6;73.3
74429;BME280;62860;52.134;23.714;2022-11-20T06:34:04;1025;;;-5.9;73.3
74429;BME280;62860;52.134;23.714;2022-11-20T06:39:42;1025.1;;;-5.8;73.1
74429;BME280;62860;52.134;23.714;2022-11-20T06:44:40;1025.3;;;-5.6;72.9
74429;BME280;62860;52.134;23.714;2022-11-20T06:49:54;1025.3;;;-5.6;72.9
74429;BME280;62860;52.134;23.714;2022-11-20T06:54:26;1025.2;;;-5.6;72.8
74429;BME280;62860;52.134;23.714;2022-11-20T06:59:40;1025.1;;;-5.7;73
74429;BME280;62860;52.134;23.714;2022-11-20T07:04:16;1025.1;;;-5.4;72.9
74429;BME280;62860;52.134;23.714;2022-11-20T07:09:40;1025;;;-5.1;72.7
74429;BME280;62860;52.134;23.714;2022-11-20T07:14:52;1024.9;;;-5;72.9
74429;BME280;62860;52.134;23.714;2022-11-20T07:19:54;1024.9;;;-5;72.8
74429;BME280;62860;52.134;23.714;2022-11-20T07:24:54;1025;;;-4.8;72.5
74429;BME280;62860;52.134;23.714;2022-11-20T07:29:04;1025;;;-4.4;72.2
74429;BME280;62860;52.134;23.714;2022-11-20T07:34:16;1024.9;;;-4.2;72.4
74429;BME280;62860;52.134;23.714;2022-11-20T07:39:26;1024.8;;;-4.2;72.4
74429;BME280;62860;52.134;23.714;2022-11-20T07:44:54;1024.8;;;-4;72.3
74429;BME280;62860;52.134;23.714;2022-11-20T07:49:28;1024.8;;;-3.9;72.4
74429;BME280;62860;52.134;23.714;2022-11-20T07:54:42;1024.7;;;-3.8;72.3
74429;BME280;62860;52.134;23.714;2022-11-20T07:59:04;1024.7;;;-3.6;71.7
74429;BME280;62860;52.134;23.714;2022-11-20T08:04:54;1024.7;;;-3.4;71.9
74429;BME280;62860;52.134;23.714;2022-11-20T08:09:26;1024.7;;;-3.3;71.6
74429;BME280;62860;52.134;23.714;2022-11-20T08:14:42;1024.7;;;-2.8;71
74429;BME280;62860;52.134;23.714;2022-11-20T08:19:38;1024.6;;;-2.6;70.9
74429;BME280;62860;52.134;23.714;2022-11-20T08:24:05;1024.5;;;-2.7;71.7
74429;BME280;62860;52.134;23.714;2022-11-20T08:29:52;1024.4;;;-2.7;71.7
74429;BME280;62860;52.134;23.714;2022-11-20T08:34:52;1024.3;;;-2.7;71.8
74429;BME280;62860;52.134;23.714;2022-11-20T08:39:52;1024.2;;;-2.6;71.8
74429;BME280;62860;52.134;23.714;2022-11-20T08:44:28;1024.2;;;-2.6;71.8
74429;BME280;62860;52.134;23.714;2022-11-20T08:49:14;1024.1;;;-2.5;71.5
74429;BME280;62860;52.134;23.714;2022-11-20T08:54:04;1024.2;;;-2.2;71.6
74429;BME280;62860;52.134;23.714;2022-11-20T08:59:48;1024.1;;;-2.1;71.4
74429;BME280;62860;52.134;23.714;2022-11-20T09:04:24;1024;;;-2.1;71.2
74429;BME280;62860;52.134;23.714;2022-11-20T09:09:52;1024;;;-2.2;71
74429;BME280;62860;52.134;23.714;2022-11-20T09:14:16;1024;;;-2.3;70.8
74429;BME280;62860;52.134;23.714;2022-11-20T09:19:26;1023.9;;;-2.4;71.3
74429;BME280;62860;52.134;23.714;2022-11-20T09:24:40;1023.8;;;-2.3;71.2
74429;BME280;62860;52.134;23.714;2022-11-20T09:29:36;1023.7;;;-2;71.3
74429;BME280;62860;52.134;23.714;2022-11-20T09:34:22;1023.6;;;-1.7;71
74429;BME280;62860;52.134;23.714;2022-11-20T09:39:14;1023.6;;;-1.4;71
74429;BME280;62860;52.134;23.714;2022-11-20T09:44:31;1023.5;;;-1.3;70.8
74429;BME280;62860;52.134;23.714;2022-11-20T09:49:42;1023.5;;;-1.1;70
74429;BME280;62860;52.134;23.714;2022-11-20T09:54:25;1023.5;;;-1;69.8
74429;BME280;62860;52.134;23.714;2022-11-20T09:59:51;1023.5;;;-1.1;70
74429;BME280;62860;52.134;23.714;2022-11-20T10:04:24;1023.4;;;-1.1;70.2
74429;BME280;62860;52.134;23.714;2022-11-20T10:09:17;1023.5;;;-1;70.2
74429;BME280;62860;52.134;23.714;2022-11-20T10:14:26;1023.6;;;-1;70.2
74429;BME280;62860;52.134;23.714;2022-11-20T10:19:50;1023.6;;;-0.9;70.5
74429;BME280;62860;52.134;23.714;2022-11-20T10:24:53;1023.6;;;-1;70.6
74429;BME280;62860;52.134;23.714;2022-11-20T10:29:07;1023.6;;;-1;70.8
74429;BME280;62860;52.134;23.714;2022-11-20T10:34:06;1023.7;;;-0.9;70.8
74429;BME280;62860;52.134;23.714;2022-11-20T10:39:41;1023.6;;;-0.8;71
74429;BME280;62860;52.134;23.714;2022-11-20T10:44:38;1023.5;;;-0.8;71.3
74429;BME280;62860;52.134;23.714;2022-11-20T10:49:15;1023.5;;;-0.8;71.6
74429;BME280;62860;52.134;23.714;2022-11-20T10:54:17;1023.5;;;-0.7;71.7
74429;BME280;62860;52.134;23.714;2022-11-20T10:59:11;1023.4;;;-0.7;71.9
74429;BME280;62860;52.134;23.714;2022-11-20T11:04:37;1023.4;;;-0.8;72.4
74429;BME280;62860;52.134;23.714;2022-11-20T11:09:27;1023.5;;;-0.9;72.8
74429;BME280;62860;52.134;23.714;2022-11-20T11:14:52;1023.5;;;-0.8;72.7
74429;BME280;62860;52.134;23.714;2022-11-20T11:19:05;1023.4;;;-0.8;72.9
74429;BME280;62860;52.134;23.714;2022-11-20T11:24:15;1023.4;;;-0.9;73.1
74429;BME280;62860;52.134;23.714;2022-11-20T11:29:25;1023.3;;;-0.9;73.3
74429;BME280;62860;52.134;23.714;2022-11-20T11:34:58;1023.2;;;-0.8;73.5
74429;BME280;62860;52.134;23.714;2022-11-20T11:39:52;1023.1;;;-0.8;73.6
74429;BME280;62860;52.134;23.714;2022-11-20T11:44:12;1023;;;-0.8;73.6
74429;BME280;62860;52.134;23.714;2022-11-20T11:49:24;1023;;;-0.8;73.8
74429;BME280;62860;52.134;23.714;2022-11-20T11:54:19;1023;;;-0.8;73.8
74429;BME280;62860;52.134;23.714;2022-11-20T11:59:43;1023;;;-0.8;73.9
74429;BME280;62860;52.134;23.714;2022-11-20T12:04:35;1023.1;;;-0.8;74
74429;BME280;62860;52.134;23.714;2022-11-20T12:09:16;1023.1;;;-0.8;74.3
74429;BME280;62860;52.134;23.714;2022-11-20T12:14:08;1023;;;-0.8;74.2
74429;BME280;62860;52.134;23.714;2022-11-20T12:19:43;1023;;;-0.8;74.4
74429;BME280;62860;52.134;23.714;2022-11-20T12:24:36;1022.9;;;-0.7;74.3
74429;BME280;62860;52.134;23.714;2022-11-20T12:29:53;1022.8;;;-0.8;74.4
74429;BME280;62860;52.134;23.714;2022-11-20T12:34:32;1022.7;;;-0.7;74.5
74429;BME280;62860;52.134;23.714;2022-11-20T12:39:07;1022.7;;;-0.7;74.5
74429;BME280;62860;52.134;23.714;2022-11-20T12:44:06;1022.6;;;-0.8;74.5
74429;BME280;62860;52.134;23.714;2022-11-20T12:49:53;1022.6;;;-0.9;74.7
74429;BME280;62860;52.134;23.714;2022-11-20T12:54:54;1022.5;;;-0.8;75.1
74429;BME280;62860;52.134;23.714;2022-11-20T12:59:47;1022.4;;;-0.8;75.2
74429;BME280;62860;52.134;23.714;2022-11-20T13:04:18;1022.2;;;-0.8;75.2
74429;BME280;62860;52.134;23.714;2022-11-20T13:09:42;1022.2;;;-0.8;75.2
74429;BME280;62860;52.134;23.714;2022-11-20T13:14:42;1022.1;;;-0.8;75.5
74429;BME280;62860;52.134;23.714;2022-11-20T13:19:15;1021.9;;;-0.8;75.4
74429;BME280;62860;52.134;23.714;2022-11-20T13:24:53;1021.9;;;-0.8;75.6
74429;BME280;62860;52.134;23.714;2022-11-20T13:29:16;1022;;;-0.9;75.9
74429;BME280;62860;52.134;23.714;2022-11-20T13:34:51;1022;;;-0.9;75.8
74429;BME280;62860;52.134;23.714;2022-11-20T13:39:05;1022.1;;;-0.9;76
74429;BME280;62860;52.134;23.714;2022-11-20T13:44:53;1022.1;;;-0.9;76
74429;BME280;62860;52.134;23.714;2022-11-20T13:49:27;1022.1;;;-0.9;76.1
74429;BME280;62860;52.134;23.714;2022-11-20T13:54:36;1022.2;;;-1;76.9
74429;BME280;62860;52.134;23.714;2022-11-20T13:59:27;1022.1;;;-1;76.6
74429;BME280;62860;52.134;23.714;2022-11-20T14:04:40;1022.1;;;-1;77.1
74429;BME280;62860;52.134;23.714;2022-11-20T14:09:51;1022.1;;;-1;77.1
74429;BME280;62860;52.134;23.714;2022-11-20T14:14:49;1022.1;;;-1;76.9
74429;BME280;62860;52.134;23.714;2022-11-20T14:19:43;1022;;;-1;77.3
74429;BME280;62860;52.134;23.714;2022-11-20T14:24:36;1022;;;-1;77.5
74429;BME280;62860;52.134;23.714;2022-11-20T14:29:35;1022;;;-1;77.7
74429;BME280;62860;52.134;23.714;2022-11-20T14:34:25;1022;;;-1;77.5
74429;BME280;62860;52.134;23.714;2022-11-20T14:39:49;1022;;;-1;77.6
74429;BME280;62860;52.134;23.714;2022-11-20T14:44:16;1022;;;-1;77.8
74429;BME280;62860;52.134;23.714;2022-11-20T14:49:51;1022;;;-1;77.8
74429;BME280;62860;52.134;23.714;2022-11-20T14:54:26;1021.9;;;-1;78.1
74429;BME280;62860;52.134;23.714;2022-11-20T14:59:48;1022;;;-1.1;78.2
74429;BME280;62860;52.134;23.714;2022-11-20T15:04:14;1021.9;;;-1.1;78.3
74429;BME280;62860;52.134;23.714;2022-11-20T15:09:24;1021.9;;;-1.1;78.5
74429;BME280;62860;52.134;23.714;2022-11-20T15:14:23;1021.9;;;-1.1;78.9
74429;BME280;62860;52.134;23.714;2022-11-20T15:19:28;1021.9;;;-1.1;79
74429;BME280;62860;52.134;23.714;2022-11-20T15:24:50;1021.8;;;-1;78.9
74429;BME280;62860;52.134;23.714;2022-11-20T15:29:50;1021.8;;;-1;78.8
74429;BME280;62860;52.134;23.714;2022-11-20T15:34:15;1021.6;;;-0.9;78.7
74429;BME280;62860;52.134;23.714;2022-11-20T15:39:14;1021.6;;;-0.9;78.9
74429;BME280;62860;52.134;23.714;2022-11-20T15:44:36;1021.5;;;-0.9;78.9
74429;BME280;62860;52.134;23.714;2022-11-20T15:49:26;1021.4;;;-0.9;79
74429;BME280;62860;52.134;23.714;2022-11-20T15:54:48;1021.4;;;-0.8;78.8
74429;BME280;62860;52.134;23.714;2022-11-20T15:59:14;1021.5;;;-0.8;78.9
74429;BME280;62860;52.134;23.714;2022-11-20T16:04:34;1021.5;;;-0.7;78.8
74429;BME280;62860;52.134;23.714;2022-11-20T16:09:24;1021.5;;;-0.6;78.6
74429;BME280;62860;52.134;23.714;2022-11-20T16:14:46;1021.6;;;-0.6;78.5
74429;BME280;62860;52.134;23.714;2022-11-20T16:19:16;1021.6;;;-0.6;78.5
74429;BME280;62860;52.134;23.714;2022-11-20T16:24:24;1021.6;;;-0.7;78.7
74429;BME280;62860;52.134;23.714;2022-11-20T16:29:22;1021.7;;;-0.7;78.6
74429;BME280;62860;52.134;23.714;2022-11-20T16:34:38;1021.7;;;-0.6;78.5
74429;BME280;62860;52.134;23.714;2022-11-20T16:39:48;1021.6;;;-0.7;78.6
74429;BME280;62860;52.134;23.714;2022-11-20T16:44:48;1021.6;;;-0.7;78.7
74429;BME280;62860;52.134;23.714;2022-11-20T16:49:14;1021.5;;;-0.7;78.8
74429;BME280;62860;52.134;23.714;2022-11-20T16:54:36;1021.4;;;-0.7;78.7
74429;BME280;62860;52.134;23.714;2022-11-20T16:59:48;1021.4;;;-0.7;78.8
74429;BME280;62860;52.134;23.714;2022-11-20T17:04:20;1021.4;;;-0.7;78.8
74429;BME280;62860;52.134;23.714;2022-11-20T17:09:44;1021.4;;;-0.8;78.8
74429;BME280;62860;52.134;23.714;2022-11-20T17:14:14;1021.2;;;-0.8;78.9
74429;BME280;62860;52.134;23.714;2022-11-20T17:19:48;1021.2;;;-0.9;79.1
74429;BME280;62860;52.134;23.714;2022-11-20T17:24:22;1021.2;;;-0.9;79
74429;BME280;62860;52.134;23.714;2022-11-20T17:29:46;1021.1;;;-0.9;79.2
74429;BME280;62860;52.134;23.714;2022-11-20T17:34:24;1021;;;-0.9;79.2
74429;BME280;62860;52.134;23.714;2022-11-20T17:39:24;1021;;;-0.9;79.4
74429;BME280;62860;52.134;23.714;2022-11-20T17:44:22;1021;;;-0.9;79.3
74429;BME280;62860;52.134;23.714;2022-11-20T17:49:38;1021;;;-0.9;79.5
74429;BME280;62860;52.134;23.714;2022-11-20T17:54:05;1020.9;;;-0.9;79.6
74429;BME280;62860;52.134;23.714;2022-11-20T17:59:48;1020.9;;;-0.8;79.7
74429;BME280;62860;52.134;23.714;2022-11-20T18:04:05;1020.8;;;-0.8;79.7
74429;BME280;62860;52.134;23.714;2022-11-20T18:09:48;1020.7;;;-0.7;79.5
74429;BME280;62860;52.134;23.714;2022-11-20T18:14:34;1020.7;;;-0.7;79.6
74429;BME280;62860;52.134;23.714;2022-11-20T18:19:29;1020.6;;;-0.8;79.6
74429;BME280;62860;52.134;23.714;2022-11-20T18:24:37;1020.6;;;-0.8;79.7
74429;BME280;62860;52.134;23.714;2022-11-20T18:29:04;1020.5;;;-0.8;79.7
74429;BME280;62860;52.134;23.714;2022-11-20T18:34:46;1020.4;;;-0.8;79.9
74429;BME280;62860;52.134;23.714;2022-11-20T18:39:46;1020.4;;;-0.7;79.7
74429;BME280;62860;52.134;23.714;2022-11-20T18:44:34;1020.4;;;-0.7;79.7
74429;BME280;62860;52.134;23.714;2022-11-20T18:49:27;1020.3;;;-0.7;79.7
74429;BME280;62860;52.134;23.714;2022-11-20T18:54:15;1020.2;;;-0.7;79.6
74429;BME280;62860;52.134;23.714;2022-11-20T18:59:23;1020.2;;;-0.7;79.8
74429;BME280;62860;52.134;23.714;2022-11-20T19:04:27;1020.2;;;-0.8;80.2
74429;BME280;62860;52.134;23.714;2022-11-20T19:09:05;1020.2;;;-0.8;80.2
74429;BME280;62860;52.134;23.714;2022-11-20T19:14:47;1020.2;;;-0.7;80.4
74429;BME280;62860;52.134;23.714;2022-11-20T19:19:05;1020.2;;;-0.7;80.3
74429;BME280;62860;52.134;23.714;2022-11-20T19:24:48;1020.2;;;-0.7;80.2
74429;BME280;62860;52.134;23.714;2022-11-20T19:29:36;1020.2;;;-0.6;80.3
74429;BME280;62860;52.134;23.714;2022-11-20T19:34:38;1020.1;;;-0.6;80.3
74429;BME280;62860;52.134;23.714;2022-11-20T19:39:37;1020;;;-0.7;80.3
74429;BME280;62860;52.134;23.714;2022-11-20T19:44:15;1020;;;-0.7;80.3
74429;BME280;62860;52.134;23.714;2022-11-20T19:49:48;1020;;;-0.7;80.3
74429;BME280;62860;52.134;23.714;2022-11-20T19:54:15;1019.9;;;-0.6;80.4
74429;BME280;62860;52.134;23.714;2022-11-20T19:59:36;1020;;;-0.6;80.3
74429;BME280;62860;52.134;23.714;2022-11-20T20:04:26;1020;;;-0.5;80.2
74429;BME280;62860;52.134;23.714;2022-11-20T20:09:05;1020;;;-0.5;80.2
74429;BME280;62860;52.134;23.714;2022-11-20T20:14:13;1019.9;;;-0.5;80.2
74429;BME280;62860;52.134;23.714;2022-11-20T20:19:26;1019.9;;;-0.5;80.1
74429;BME280;62860;52.134;23.714;2022-11-20T20:24:26;1019.8;;;-0.6;80.2
74429;BME280;62860;52.134;23.714;2022-11-20T20:29:48;1019.9;;;-0.6;80.5
74429;BME280;62860;52.134;23.714;2022-11-20T20:34:04;1019.9;;;-0.4;80.4
74429;BME280;62860;52.134;23.714;2022-11-20T20:39:48;1019.9;;;-0.4;80.3
74429;BME280;62860;52.134;23.714;2022-11-20T20:44:34;1019.8;;;-0.4;80.2
74429;BME280;62860;52.134;23.714;2022-11-20T20:49:36;1019.9;;;-0.3;80.2
74429;BME280;62860;52.134;23.714;2022-11-20T20:54:37;1019.9;;;-0.3;80.2
74429;BME280;62860;52.134;23.714;2022-11-20T20:59:04;1019.8;;;-0.3;80.2
74429;BME280;62860;52.134;23.714;2022-11-20T21:04:51;1019.7;;;-0.4;80.4
74429;BME280;62860;52.134;23.714;2022-11-20T21:09:50;1019.6;;;-0.5;80.6
74429;BME280;62860;52.134;23.714;2022-11-20T21:14:29;1019.7;;;-0.5;80.5
74429;BME280;62860;52.134;23.714;2022-11-20T21:19:24;1019.7;;;-0.4;80.7
74429;BME280;62860;52.134;23.714;2022-11-20T21:24:14;1019.7;;;-0.4;80.6
74429;BME280;62860;52.134;23.714;2022-11-20T21:29:23;1019.7;;;-0.3;80.6
74429;BME280;62860;52.134;23.714;2022-11-20T21:34:41;1019.7;;;-0.3;80.6
74429;BME280;62860;52.134;23.714;2022-11-20T21:39:15;1019.7;;;-0.3;80.6
74429;BME280;62860;52.134;23.714;2022-11-20T21:44:49;1019.6;;;-0.3;80.7
74429;BME280;62860;52.134;23.714;2022-11-20T21:49:15;1019.5;;;-0.2;80.7
74429;BME280;62860;52.134;23.714;2022-11-20T21:54:53;1019.4;;;-0.1;80.7
74429;BME280;62860;52.134;23.714;2022-11-20T21:59:33;1019.3;;;-0.1;80.4
74429;BME280;62860;52.134;23.714;2022-11-20T22:04:39;1019.3;;;-0.1;80.4
74429;BME280;62860;52.134;23.714;2022-11-20T22:09:34;1019.3;;;0;80.4
74429;BME280;62860;52.134;23.714;2022-11-20T22:14:13;1019.3;;;-0.1;80.4
74429;BME280;62860;52.134;23.714;2022-11-20T22:19:47;1019.3;;;0;80.5
74429;BME280;62860;52.134;23.714;2022-11-20T22:24:47;1019.4;;;0;80.5
74429;BME280;62860;52.134;23.714;2022-11-20T22:29:43;1019.4;;;0;80.6
74429;BME280;62860;52.134;23.714;2022-11-20T22:34:23;1019.4;;;0;80.6
74429;BME280;62860;52.134;23.714;2022-11-20T22:39:05;1019.3;;;0;80.6
74429;BME280;62860;52.134;23.714;2022-11-20T22:44:21;1019.3;;;0;80.6
74429;BME280;62860;52.134;23.714;2022-11-20T22:49:47;1019.3;;;0;80.7
74429;BME280;62860;52.134;23.714;2022-11-20T22:54:13;1019.4;;;0;80.9
74429;BME280;62860;52.134;23.714;2022-11-20T22:59:37;1019.4;;;0.1;80.9
74429;BME280;62860;52.134;23.714;2022-11-20T23:04:05;1019.4;;;0.1;80.8
74429;BME280;62860;52.134;23.714;2022-11-20T23:09:47;1019.4;;;0.2;80.8
74429;BME280;62860;52.134;23.714;2022-11-20T23:14:19;1019.4;;;0.2;80.8
74429;BME280;62860;52.134;23.714;2022-11-20T23:19:25;1019.4;;;0.3;80.7
74429;BME280;62860;52.134;23.714;2022-11-20T23:24:33;1019.3;;;0.3;80.7
74429;BME280;62860;52.134;23.714;2022-11-20T23:29:05;1019.2;;;0.3;80.6
74429;BME280;62860;52.134;23.714;2022-11-20T23:34:47;1019.2;;;0.4;80.6
74429;BME280;62860;52.134;23.714;2022-11-20T23:39:47;1019.2;;;0.4;80.5
74429;BME280;62860;52.134;23.714;2022-11-20T23:44:45;1019.2;;;0.4;80.5
74429;BME280;62860;52.134;23.714;2022-11-20T23:49:05;1019.2;;;0.4;80.5
74429;BME280;62860;52.134;23.714;2022-11-20T23:54:23;1019.2;;;0.5;80.5
74429;BME280;62860;52.134;23.714;2022-11-20T23:59:05;1019.1;;;0.5;80.5
